Geel, Belgium
Current Conditions -  °F | °C
As of 8:25 PM on Saturday 25 Oct 2014 (Local Time) from EBDT Reporting Station
Broken Clouds Broken Clouds  
Wind Chill: 52°   Ceiling: 4400
Heat Index: 52°   Visibility: 6mi
Dew Point: 46°   Wind: 2mph
Humidity: 82%   Direction: NA
Pressure: 30.18"   Gusts: NA
Location:  51.17°N, 4.99°E
Report Text: EBDT 251825Z AUTO VRB02KT 9999 BKN044/// 11/08 Q1022 BLU
Loading
Personal Weather Stations






























Interactive Weather Map
Tropical Storm Tracking
New forecast layout! Learn more

10-Day Weather Forecast

Advertisements
Track Severe Weather on mobile